^^
No Wait Weather (KNEBELLE1) Station Historical Data
Daily Summary for May 21, 2019 Units:  Both    English   Metric
Daily Weekly Monthly Yearly Custom
  High: Low: Average:
Temperature: 55.1 °F /  12.8 °C 46.4 °F /  8 °C 49 °F /  9.4 °C
Dew Point: 54.54 °F /  12.5 °C 43.55 °F /  6.4 °C 47.5 °F /  8.6 °C
Humidity: 99% 82% 95%
Wind Speed: 9mph /  14.5km/h - 0.9mph /  1.4km/h
Wind Gust: 14mph /  22.5km/h - -
Wind- - ENE
Pressure: 29.79 in /  1008.7 hPa 29.20 in /  988.7 hPa -
Precipitation: 0.75 in /  19.05 mm    
Historical Graphs
 
 
Tabular Data for May 21, 2019
Time Temperature Dew Point Pressure Wind Wind Speed Wind Gust Humidity Rainfall Rate (Hourly) solar
00:04 48.8 °F /  9.3 °C 43.55 °F /  6.4 °C 29.79in /  1008.7hPa Calm   4mph /  6.4km/h 82% 0in /  0mm WeatherCatV3.04B91 W/m2
00:09 48.8 °F /  9.3 °C 43.55 °F /  6.4 °C 29.79in /  1008.7hPa Calm     82% 0in /  0mm WeatherCatV3.04B91 W/m2
00:14 48.8 °F /  9.3 °C 43.55 °F /  6.4 °C 29.78in /  1008.4hPa Calm   4mph /  6.4km/h 82% 0in /  0mm WeatherCatV3.04B91 W/m2
00:19 48.8 °F /  9.3 °C 43.55 °F /  6.4 °C 29.78in /  1008.4hPa NE 4mph /  6.4km/h 4mph /  6.4km/h 82% 0in /  0mm WeatherCatV3.04B91 W/m2
00:24 48.8 °F /  9.3 °C 43.55 °F /  6.4 °C 29.78in /  1008.4hPa Calm   3mph /  4.8km/h 82% 0in /  0mm WeatherCatV3.04B91 W/m2
00:29 48.8 °F /  9.3 °C 43.55 °F /  6.4 °C 29.77in /  1008hPa Calm     82% 0in /  0mm WeatherCatV3.04B91 W/m2
00:34 48.6 °F /  9.2 °C 43.67 °F /  6.5 °C 29.77in /  1008hPa NE 5mph /  8km/h 5mph /  8km/h 83% 0in /  0mm WeatherCatV3.04B91 W/m2
00:39 48.5 °F /  9.2 °C 43.58 °F /  6.4 °C 29.77in /  1008hPa NE 1mph /  1.6km/h 4mph /  6.4km/h 83% 0in /  0mm WeatherCatV3.04B91 W/m2
00:44 48.2 °F /  9 °C 43.59 °F /  6.4 °C 29.76in /  1007.7hPa Calm   9mph /  14.5km/h 84% 0in /  0mm WeatherCatV3.04B91 W/m2
00:49 48 °F /  8.9 °C 43.71 °F /  6.5 °C 29.76in /  1007.7hPa Calm   6mph /  9.7km/h 85% 0in /  0mm WeatherCatV3.04B91 W/m2
00:54 47.9 °F /  8.8 °C 43.92 °F /  6.6 °C 29.76in /  1007.7hPa Calm   5mph /  8km/h 86% 0in /  0mm WeatherCatV3.04B91 W/m2
00:59 47.7 °F /  8.7 °C 44.02 °F /  6.7 °C 29.75in /  1007.3hPa NE 1mph /  1.6km/h 5mph /  8km/h 87% 0in /  0mm WeatherCatV3.04B91 W/m2
01:04 47.6 °F /  8.7 °C 43.92 °F /  6.6 °C 29.75in /  1007.3hPa ENE 2mph /  3.2km/h 5mph /  8km/h 87% 0in /  0mm WeatherCatV3.04B91 W/m2
01:09 47.4 °F /  8.6 °C 44.03 °F /  6.7 °C 29.75in /  1007.3hPa Calm   2mph /  3.2km/h 88% 0in /  0mm WeatherCatV3.04B91 W/m2
01:14 47.4 °F /  8.6 °C 44.03 °F /  6.7 °C 29.75in /  1007.3hPa Calm   3mph /  4.8km/h 88% 0in /  0mm WeatherCatV3.04B91 W/m2
01:19 47.3 °F /  8.5 °C 44.22 °F /  6.8 °C 29.75in /  1007.3hPa Calm   4mph /  6.4km/h 89% 0in /  0mm WeatherCatV3.04B91 W/m2
01:24 47.3 °F /  8.5 °C 44.52 °F /  7 °C 29.75in /  1007.3hPa Calm   3mph /  4.8km/h 90% 0in /  0mm WeatherCatV3.04B91 W/m2
01:29 47.3 °F /  8.5 °C 44.52 °F /  7 °C 29.75in /  1007.3hPa Calm   3mph /  4.8km/h 90% 0in /  0mm WeatherCatV3.04B91 W/m2
01:34 47.3 °F /  8.5 °C 44.52 °F /  7 °C 29.75in /  1007.3hPa ENE 4mph /  6.4km/h 4mph /  6.4km/h 90% 0in /  0mm WeatherCatV3.04B91 W/m2
01:39 47.3 °F /  8.5 °C 44.52 °F /  7 °C 29.75in /  1007.3hPa Calm   7mph /  11.3km/h 90% 0in /  0mm WeatherCatV3.04B91 W/m2
01:44 47.3 °F /  8.5 °C 44.81 °F /  7.1 °C 29.76in /  1007.7hPa Calm   3mph /  4.8km/h 91% 0in /  0mm WeatherCatV3.04B91 W/m2
01:49 47.3 °F /  8.5 °C 44.81 °F /  7.1 °C 29.76in /  1007.7hPa Calm   6mph /  9.7km/h 91% 0in /  0mm WeatherCatV3.04B91 W/m2
01:54 47.3 °F /  8.5 °C 44.81 °F /  7.1 °C 29.76in /  1007.7hPa Calm   11mph /  17.7km/h 91% 0in /  0mm WeatherCatV3.04B91 W/m2
01:59 47.3 °F /  8.5 °C 44.81 °F /  7.1 °C 29.75in /  1007.3hPa Calm   11mph /  17.7km/h 91% 0in /  0mm WeatherCatV3.04B91 W/m2
02:04 47.1 °F /  8.4 °C 44.61 °F /  7 °C 29.75in /  1007.3hPa Calm   4mph /  6.4km/h 91% 0.1in /  2.54mm WeatherCatV3.04B91 W/m2
02:09 47.1 °F /  8.4 °C 44.9 °F /  7.2 °C 29.75in /  1007.3hPa Calm   3mph /  4.8km/h 92% 0.14in /  3.56mm WeatherCatV3.04B91 W/m2
02:14 47 °F /  8.3 °C 44.8 °F /  7.1 °C 29.74in /  1007hPa NE 3mph /  4.8km/h 3mph /  4.8km/h 92% 0.15in /  3.81mm WeatherCatV3.04B91 W/m2
02:19 47 °F /  8.3 °C 45.08 °F /  7.3 °C 29.74in /  1007hPa Calm     93% 0.18in /  4.57mm WeatherCatV3.04B91 W/m2
02:24 46.8 °F /  8.2 °C 44.88 °F /  7.2 °C 29.74in /  1007hPa NE 3mph /  4.8km/h 4mph /  6.4km/h 93% 0.13in /  3.3mm WeatherCatV3.04B91 W/m2
02:29 46.8 °F /  8.2 °C 44.88 °F /  7.2 °C 29.72in /  1006.3hPa NE 7mph /  11.3km/h 9mph /  14.5km/h 93% 0.07in /  1.78mm WeatherCatV3.04B91 W/m2
02:34 46.8 °F /  8.2 °C 45.16 °F /  7.3 °C 29.72in /  1006.3hPa Calm   7mph /  11.3km/h 94% 0.05in /  1.27mm WeatherCatV3.04B91 W/m2
02:39 46.8 °F /  8.2 °C 45.16 °F /  7.3 °C 29.72in /  1006.3hPa NE 5mph /  8km/h 6mph /  9.7km/h 94% 0in /  0mm WeatherCatV3.04B91 W/m2
02:44 46.8 °F /  8.2 °C 45.16 °F /  7.3 °C 29.73in /  1006.7hPa Calm   5mph /  8km/h 94% 0in /  0mm WeatherCatV3.04B91 W/m2
02:49 46.8 °F /  8.2 °C 45.16 °F /  7.3 °C 29.73in /  1006.7hPa Calm     94% 0in /  0mm WeatherCatV3.04B91 W/m2
02:54 46.8 °F /  8.2 °C 45.16 °F /  7.3 °C 29.73in /  1006.7hPa NNE 3mph /  4.8km/h 5mph /  8km/h 94% 0in /  0mm WeatherCatV3.04B91 W/m2
02:59 46.8 °F /  8.2 °C 45.16 °F /  7.3 °C 29.74in /  1007hPa NNE 3mph /  4.8km/h 3mph /  4.8km/h 94% 0in /  0mm WeatherCatV3.04B91 W/m2
03:04 46.8 °F /  8.2 °C 45.44 °F /  7.5 °C 29.74in /  1007hPa NE 2mph /  3.2km/h 5mph /  8km/h 95% 0in /  0mm WeatherCatV3.04B91 W/m2
03:09 47 °F /  8.3 °C 45.64 °F /  7.6 °C 29.74in /  1007hPa NNE 1mph /  1.6km/h 4mph /  6.4km/h 95% 0in /  0mm WeatherCatV3.04B91 W/m2
03:14 47 °F /  8.3 °C 45.64 °F /  7.6 °C 29.73in /  1006.7hPa ENE 7mph /  11.3km/h 10mph /  16.1km/h 95% 0in /  0mm WeatherCatV3.04B91 W/m2
03:19 47 °F /  8.3 °C 45.64 °F /  7.6 °C 29.73in /  1006.7hPa Calm   4mph /  6.4km/h 95% 0in /  0mm WeatherCatV3.04B91 W/m2
03:24 47 °F /  8.3 °C 45.64 °F /  7.6 °C 29.73in /  1006.7hPa ENE 2mph /  3.2km/h 6mph /  9.7km/h 95% 0in /  0mm WeatherCatV3.04B91 W/m2
03:29 47 °F /  8.3 °C 45.64 °F /  7.6 °C 29.72in /  1006.3hPa Calm   2mph /  3.2km/h 95% 0in /  0mm WeatherCatV3.04B91 W/m2
03:34 47 °F /  8.3 °C 45.64 °F /  7.6 °C 29.72in /  1006.3hPa Calm   9mph /  14.5km/h 95% 0in /  0mm WeatherCatV3.04B91 W/m2
03:39 47 °F /  8.3 °C 45.64 °F /  7.6 °C 29.72in /  1006.3hPa Calm   4mph /  6.4km/h 95% 0in /  0mm WeatherCatV3.04B91 W/m2
03:44 47 °F /  8.3 °C 45.64 °F /  7.6 °C 29.70in /  1005.6hPa NE 3mph /  4.8km/h 5mph /  8km/h 95% 0in /  0mm WeatherCatV3.04B91 W/m2
03:49 47 °F /  8.3 °C 45.64 °F /  7.6 °C 29.70in /  1005.6hPa Calm     95% 0in /  0mm WeatherCatV3.04B91 W/m2
03:54 47 °F /  8.3 °C 45.64 °F /  7.6 °C 29.70in /  1005.6hPa Calm   8mph /  12.9km/h 95% 0in /  0mm WeatherCatV3.04B91 W/m2
03:59 47 °F /  8.3 °C 45.64 °F /  7.6 °C 29.69in /  1005.3hPa NE 4mph /  6.4km/h 4mph /  6.4km/h 95% 0in /  0mm WeatherCatV3.04B91 W/m2
04:04 47 °F /  8.3 °C 45.92 °F /  7.7 °C 29.69in /  1005.3hPa NNE 4mph /  6.4km/h 9mph /  14.5km/h 96% 0in /  0mm WeatherCatV3.04B91 W/m2
04:09 47 °F /  8.3 °C 45.92 °F /  7.7 °C 29.69in /  1005.3hPa Calm   1mph /  1.6km/h 96% 0in /  0mm WeatherCatV3.04B91 W/m2
04:14 47 °F /  8.3 °C 45.92 °F /  7.7 °C 29.69in /  1005.3hPa Calm   5mph /  8km/h 96% 0in /  0mm WeatherCatV3.04B91 W/m2
04:19 47 °F /  8.3 °C 45.92 °F /  7.7 °C 29.69in /  1005.3hPa ENE 4mph /  6.4km/h 13mph /  20.9km/h 96% 0in /  0mm WeatherCatV3.04B91 W/m2
04:24 47 °F /  8.3 °C 45.92 °F /  7.7 °C 29.69in /  1005.3hPa NE 4mph /  6.4km/h 5mph /  8km/h 96% 0in /  0mm WeatherCatV3.04B91 W/m2
04:29 47 °F /  8.3 °C 45.92 °F /  7.7 °C 29.69in /  1005.3hPa NE 4mph /  6.4km/h 7mph /  11.3km/h 96% 0in /  0mm WeatherCatV3.04B91 W/m2
04:34 47.1 °F /  8.4 °C 46.02 °F /  7.8 °C 29.69in /  1005.3hPa NE 4mph /  6.4km/h 7mph /  11.3km/h 96% 0in /  0mm WeatherCatV3.04B91 W/m2
04:39 47.1 °F /  8.4 °C 46.02 °F /  7.8 °C 29.69in /  1005.3hPa ENE 2mph /  3.2km/h 9mph /  14.5km/h 96% 0in /  0mm WeatherCatV3.04B91 W/m2
04:44 47.1 °F /  8.4 °C 46.02 °F /  7.8 °C 29.69in /  1005.3hPa Calm   13mph /  20.9km/h 96% 0in /  0mm WeatherCatV3.04B91 W/m2
04:49 47.1 °F /  8.4 °C 46.02 °F /  7.8 °C 29.69in /  1005.3hPa ENE 2mph /  3.2km/h 9mph /  14.5km/h 96% 0in /  0mm WeatherCatV3.04B91 W/m2
04:54 47.1 °F /  8.4 °C 46.02 °F /  7.8 °C 29.69in /  1005.3hPa Calm   10mph /  16.1km/h 96% 0in /  0mm WeatherCatV3.04B91 W/m2
04:59 47.1 °F /  8.4 °C 46.02 °F /  7.8 °C 29.68in /  1005hPa Calm   5mph /  8km/h 96% 0in /  0mm WeatherCatV3.04B91 W/m2
05:04 47.3 °F /  8.5 °C 46.22 °F /  7.9 °C 29.68in /  1005hPa Calm   5mph /  8km/h 96% 0in /  0mm WeatherCatV3.04B91 W/m2
05:09 47.3 °F /  8.5 °C 46.22 °F /  7.9 °C 29.68in /  1005hPa NE 3mph /  4.8km/h 8mph /  12.9km/h 96% 0in /  0mm WeatherCatV3.04B91 W/m2
05:14 47.3 °F /  8.5 °C 46.22 °F /  7.9 °C 29.69in /  1005.3hPa Calm   6mph /  9.7km/h 96% 0in /  0mm WeatherCatV3.04B91 W/m2
05:19 47.3 °F /  8.5 °C 46.22 °F /  7.9 °C 29.69in /  1005.3hPa NE 3mph /  4.8km/h 9mph /  14.5km/h 96% 0in /  0mm WeatherCatV3.04B91 W/m2
05:24 47.3 °F /  8.5 °C 46.22 °F /  7.9 °C 29.69in /  1005.3hPa Calm     96% 0in /  0mm WeatherCatV3.04B91 W/m2
05:29 47.3 °F /  8.5 °C 46.22 °F /  7.9 °C 29.67in /  1004.6hPa Calm     96% 0in /  0mm WeatherCatV3.04B91 W/m2
05:34 47.3 °F /  8.5 °C 46.22 °F /  7.9 °C 29.67in /  1004.6hPa ENE 3mph /  4.8km/h 9mph /  14.5km/h 96% 0in /  0mm WeatherCatV3.04B91 W/m2
05:39 47.3 °F /  8.5 °C 46.22 °F /  7.9 °C 29.67in /  1004.6hPa East 3mph /  4.8km/h 6mph /  9.7km/h 96% 0in /  0mm WeatherCatV3.04B91 W/m2
05:44 47.4 °F /  8.6 °C 46.32 °F /  8 °C 29.67in /  1004.6hPa Calm   3mph /  4.8km/h 96% 0in /  0mm WeatherCatV3.04B91 W/m2
05:49 47.4 °F /  8.6 °C 46.04 °F /  7.8 °C 29.67in /  1004.6hPa Calm   7mph /  11.3km/h 95% 0in /  0mm WeatherCatV3.04B91 W/m2
05:54 47.4 °F /  8.6 °C 46.04 °F /  7.8 °C 29.67in /  1004.6hPa Calm   7mph /  11.3km/h 95% 0in /  0mm WeatherCatV3.04B91 W/m2
05:59 47.4 °F /  8.6 °C 46.04 °F /  7.8 °C 29.67in /  1004.6hPa Calm     95% 0in /  0mm WeatherCatV3.04B91 W/m2
06:04 47.6 °F /  8.7 °C 46.24 °F /  7.9 °C 29.67in /  1004.6hPa ESE 3mph /  4.8km/h 3mph /  4.8km/h 95% 0in /  0mm WeatherCatV3.04B91 W/m2
06:09 47.6 °F /  8.7 °C 46.24 °F /  7.9 °C 29.67in /  1004.6hPa NE 2mph /  3.2km/h 5mph /  8km/h 95% 0in /  0mm WeatherCatV3.04B91 W/m2
06:14 47.6 °F /  8.7 °C 46.24 °F /  7.9 °C 29.68in /  1005hPa ENE 3mph /  4.8km/h 11mph /  17.7km/h 95% 0in /  0mm WeatherCatV3.04B91 W/m2
06:19 47.6 °F /  8.7 °C 46.24 °F /  7.9 °C 29.68in /  1005hPa Calm   4mph /  6.4km/h 95% 0in /  0mm WeatherCatV3.04B91 W/m2
06:24 47.6 °F /  8.7 °C 46.24 °F /  7.9 °C 29.68in /  1005hPa Calm   3mph /  4.8km/h 95% 0in /  0mm WeatherCatV3.04B91 W/m2
06:29 47.7 °F /  8.7 °C 46.34 °F /  8 °C 29.67in /  1004.6hPa NE 1mph /  1.6km/h 4mph /  6.4km/h 95% 0in /  0mm WeatherCatV3.04B91 W/m2
06:34 47.7 °F /  8.7 °C 46.34 °F /  8 °C 29.67in /  1004.6hPa NNE 6mph /  9.7km/h 6mph /  9.7km/h 95% 0in /  0mm WeatherCatV3.04B91 W/m2
06:39 47.7 °F /  8.7 °C 46.34 °F /  8 °C 29.67in /  1004.6hPa ENE 6mph /  9.7km/h 6mph /  9.7km/h 95% 0in /  0mm WeatherCatV3.04B91 W/m2
06:44 47.7 °F /  8.7 °C 46.34 °F /  8 °C 29.66in /  1004.3hPa East 3mph /  4.8km/h 4mph /  6.4km/h 95% 0in /  0mm WeatherCatV3.04B91 W/m2
06:49 47.9 °F /  8.8 °C 46.54 °F /  8.1 °C 29.66in /  1004.3hPa Calm   6mph /  9.7km/h 95% 0in /  0mm WeatherCatV3.04B91 W/m2
06:54 47.9 °F /  8.8 °C 46.54 °F /  8.1 °C 29.66in /  1004.3hPa NNE 3mph /  4.8km/h 7mph /  11.3km/h 95% 0in /  0mm WeatherCatV3.04B91 W/m2
06:59 47.9 °F /  8.8 °C 46.54 °F /  8.1 °C 29.66in /  1004.3hPa Calm     95% 0in /  0mm WeatherCatV3.04B91 W/m2
07:04 47.9 °F /  8.8 °C 46.54 °F /  8.1 °C 29.66in /  1004.3hPa Calm     95% 0in /  0mm WeatherCatV3.04B91 W/m2
07:09 47.9 °F /  8.8 °C 46.54 °F /  8.1 °C 29.66in /  1004.3hPa Calm   3mph /  4.8km/h 95% 0in /  0mm WeatherCatV3.04B91 W/m2
07:14 47.9 °F /  8.8 °C 46.54 °F /  8.1 °C 29.64in /  1003.6hPa Calm   3mph /  4.8km/h 95% 0in /  0mm WeatherCatV3.04B91 W/m2
07:19 48 °F /  8.9 °C 46.64 °F /  8.1 °C 29.64in /  1003.6hPa NE 4mph /  6.4km/h 5mph /  8km/h 95% 0in /  0mm WeatherCatV3.04B91 W/m2
07:24 48 °F /  8.9 °C 46.64 °F /  8.1 °C 29.64in /  1003.6hPa NE 2mph /  3.2km/h 5mph /  8km/h 95% 0in /  0mm WeatherCatV3.04B91 W/m2
07:29 48 °F /  8.9 °C 46.64 °F /  8.1 °C 29.66in /  1004.3hPa Calm     95% 0in /  0mm WeatherCatV3.04B91 W/m2
07:34 48 °F /  8.9 °C 46.64 °F /  8.1 °C 29.66in /  1004.3hPa Calm     95% 0in /  0mm WeatherCatV3.04B91 W/m2
07:39 48 °F /  8.9 °C 46.64 °F /  8.1 °C 29.66in /  1004.3hPa Calm   4mph /  6.4km/h 95% 0in /  0mm WeatherCatV3.04B91 W/m2
07:44 48 °F /  8.9 °C 46.64 °F /  8.1 °C 29.65in /  1003.9hPa Calm   1mph /  1.6km/h 95% 0in /  0mm WeatherCatV3.04B91 W/m2
07:49 48 °F /  8.9 °C 46.36 °F /  8 °C 29.65in /  1003.9hPa ESE 1mph /  1.6km/h 10mph /  16.1km/h 94% 0in /  0mm WeatherCatV3.04B91 W/m2
07:54 47.9 °F /  8.8 °C 46.26 °F /  7.9 °C 29.65in /  1003.9hPa Calm   2mph /  3.2km/h 94% 0in /  0mm WeatherCatV3.04B91 W/m2
07:59 47.9 °F /  8.8 °C 46.26 °F /  7.9 °C 29.64in /  1003.6hPa Calm     94% 0in /  0mm WeatherCatV3.04B91 W/m2
08:04 47.9 °F /  8.8 °C 46.26 °F /  7.9 °C 29.64in /  1003.6hPa NW 6mph /  9.7km/h 6mph /  9.7km/h 94% 0in /  0mm WeatherCatV3.04B91 W/m2
08:09 48 °F /  8.9 °C 46.36 °F /  8 °C 29.64in /  1003.6hPa Calm   6mph /  9.7km/h 94% 0in /  0mm WeatherCatV3.04B91 W/m2
08:14 48 °F /  8.9 °C 46.36 °F /  8 °C 29.64in /  1003.6hPa ENE 3mph /  4.8km/h 4mph /  6.4km/h 94% 0in /  0mm WeatherCatV3.04B91 W/m2
08:19 48 °F /  8.9 °C 46.36 °F /  8 °C 29.64in /  1003.6hPa Calm     94% 0in /  0mm WeatherCatV3.04B91 W/m2
08:24 48 °F /  8.9 °C 46.36 °F /  8 °C 29.64in /  1003.6hPa Calm     94% 0in /  0mm WeatherCatV3.04B91 W/m2
08:29 48 °F /  8.9 °C 46.36 °F /  8 °C 29.66in /  1004.3hPa Calm   1mph /  1.6km/h 94% 0in /  0mm WeatherCatV3.04B91 W/m2
08:34 48 °F /  8.9 °C 46.36 °F /  8 °C 29.66in /  1004.3hPa Calm   1mph /  1.6km/h 94% 0in /  0mm WeatherCatV3.04B91 W/m2
08:39 48 °F /  8.9 °C 46.36 °F /  8 °C 29.66in /  1004.3hPa Calm     94% 0in /  0mm WeatherCatV3.04B91 W/m2
08:44 48 °F /  8.9 °C 46.36 °F /  8 °C 29.67in /  1004.6hPa Calm   3mph /  4.8km/h 94% 0in /  0mm WeatherCatV3.04B91 W/m2
08:49 48 °F /  8.9 °C 46.36 °F /  8 °C 29.67in /  1004.6hPa Calm   1mph /  1.6km/h 94% 0in /  0mm WeatherCatV3.04B91 W/m2
08:54 48.2 °F /  9 °C 46.55 °F /  8.1 °C 29.67in /  1004.6hPa Calm   3mph /  4.8km/h 94% 0in /  0mm WeatherCatV3.04B91 W/m2
08:59 48.2 °F /  9 °C 46.55 °F /  8.1 °C 29.66in /  1004.3hPa Calm     94% 0in /  0mm WeatherCatV3.04B91 W/m2
09:04 48 °F /  8.9 °C 46.36 °F /  8 °C 29.66in /  1004.3hPa Calm   9mph /  14.5km/h 94% 0in /  0mm WeatherCatV3.04B91 W/m2
09:09 47.9 °F /  8.8 °C 46.26 °F /  7.9 °C 29.66in /  1004.3hPa Calm   11mph /  17.7km/h 94% 0in /  0mm WeatherCatV3.04B91 W/m2
09:14 47.6 °F /  8.7 °C 45.96 °F /  7.8 °C 29.64in /  1003.6hPa Calm   4mph /  6.4km/h 94% 0in /  0mm WeatherCatV3.04B91 W/m2
09:19 47.4 °F /  8.6 °C 45.76 °F /  7.6 °C 29.64in /  1003.6hPa Calm     94% 0in /  0mm WeatherCatV3.04B91 W/m2
09:24 47.4 °F /  8.6 °C 45.76 °F /  7.6 °C 29.64in /  1003.6hPa Calm   3mph /  4.8km/h 94% 0in /  0mm WeatherCatV3.04B91 W/m2
09:29 47.3 °F /  8.5 °C 45.66 °F /  7.6 °C 29.63in /  1003.3hPa Calm   1mph /  1.6km/h 94% 0in /  0mm WeatherCatV3.04B91 W/m2
09:34 47.3 °F /  8.5 °C 45.66 °F /  7.6 °C 29.63in /  1003.3hPa North 2mph /  3.2km/h 6mph /  9.7km/h 94% 0in /  0mm WeatherCatV3.04B91 W/m2
09:39 47.1 °F /  8.4 °C 45.74 °F /  7.6 °C 29.63in /  1003.3hPa Calm     95% 0in /  0mm WeatherCatV3.04B91 W/m2
09:44 47.1 °F /  8.4 °C 45.74 °F /  7.6 °C 29.62in /  1002.9hPa East 3mph /  4.8km/h 3mph /  4.8km/h 95% 0in /  0mm WeatherCatV3.04B91 W/m2
09:49 47 °F /  8.3 °C 45.64 °F /  7.6 °C 29.62in /  1002.9hPa NNE 5mph /  8km/h 9mph /  14.5km/h 95% 0in /  0mm WeatherCatV3.04B91 W/m2
09:54 47 °F /  8.3 °C 45.64 °F /  7.6 °C 29.62in /  1002.9hPa NE 1mph /  1.6km/h 4mph /  6.4km/h 95% 0in /  0mm WeatherCatV3.04B91 W/m2
09:59 47 °F /  8.3 °C 45.64 °F /  7.6 °C 29.63in /  1003.3hPa Calm     95% 0in /  0mm WeatherCatV3.04B91 W/m2
10:04 46.8 °F /  8.2 °C 45.44 °F /  7.5 °C 29.63in /  1003.3hPa East 1mph /  1.6km/h 3mph /  4.8km/h 95% 0in /  0mm WeatherCatV3.04B91 W/m2
10:09 46.8 °F /  8.2 °C 45.44 °F /  7.5 °C 29.63in /  1003.3hPa Calm   2mph /  3.2km/h 95% 0in /  0mm WeatherCatV3.04B91 W/m2
10:14 46.8 °F /  8.2 °C 45.44 °F /  7.5 °C 29.61in /  1002.6hPa Calm   3mph /  4.8km/h 95% 0.11in /  2.79mm WeatherCatV3.04B91 W/m2
10:19 46.7 °F /  8.2 °C 45.34 °F /  7.4 °C 29.61in /  1002.6hPa Calm   1mph /  1.6km/h 95% 0.1in /  2.54mm WeatherCatV3.04B91 W/m2
10:24 46.8 °F /  8.2 °C 45.44 °F /  7.5 °C 29.61in /  1002.6hPa Calm   3mph /  4.8km/h 95% 0.1in /  2.54mm WeatherCatV3.04B91 W/m2
10:29 46.8 °F /  8.2 °C 45.44 °F /  7.5 °C 29.59in /  1001.9hPa Calm     95% 0.07in /  1.78mm WeatherCatV3.04B91 W/m2
10:34 46.8 °F /  8.2 °C 45.44 °F /  7.5 °C 29.59in /  1001.9hPa Calm   7mph /  11.3km/h 95% 0.07in /  1.78mm WeatherCatV3.04B91 W/m2
10:39 46.8 °F /  8.2 °C 45.72 °F /  7.6 °C 29.59in /  1001.9hPa Calm   4mph /  6.4km/h 96% 0.05in /  1.27mm WeatherCatV3.04B91 W/m2
10:44 46.7 °F /  8.2 °C 45.62 °F /  7.6 °C 29.59in /  1001.9hPa East 2mph /  3.2km/h 2mph /  3.2km/h 96% 0.04in /  1.02mm WeatherCatV3.04B91 W/m2
10:49 46.7 °F /  8.2 °C 45.62 °F /  7.6 °C 29.59in /  1001.9hPa NE 1mph /  1.6km/h 3mph /  4.8km/h 96% 0.04in /  1.02mm WeatherCatV3.04B91 W/m2
10:54 46.7 °F /  8.2 °C 45.62 °F /  7.6 °C 29.59in /  1001.9hPa NNE 3mph /  4.8km/h 3mph /  4.8km/h 96% 0.05in /  1.27mm WeatherCatV3.04B91 W/m2
10:59 46.7 °F /  8.2 °C 45.62 °F /  7.6 °C 29.59in /  1001.9hPa Calm   4mph /  6.4km/h 96% 0.05in /  1.27mm WeatherCatV3.04B91 W/m2
11:04 46.5 °F /  8.1 °C 45.42 °F /  7.5 °C 29.59in /  1001.9hPa East 3mph /  4.8km/h 3mph /  4.8km/h 96% 0.05in /  1.27mm WeatherCatV3.04B91 W/m2
11:09 46.5 °F /  8.1 °C 45.42 °F /  7.5 °C 29.59in /  1001.9hPa Calm     96% 0.04in /  1.02mm WeatherCatV3.04B91 W/m2
11:14 46.5 °F /  8.1 °C 45.42 °F /  7.5 °C 29.58in /  1001.6hPa Calm     96% 0.04in /  1.02mm WeatherCatV3.04B91 W/m2
11:19 46.5 °F /  8.1 °C 45.42 °F /  7.5 °C 29.58in /  1001.6hPa Calm   3mph /  4.8km/h 96% 0.06in /  1.52mm WeatherCatV3.04B91 W/m2
11:24 46.7 °F /  8.2 °C 45.62 °F /  7.6 °C 29.58in /  1001.6hPa Calm     96% 0.06in /  1.52mm WeatherCatV3.04B91 W/m2
11:29 46.5 °F /  8.1 °C 45.42 °F /  7.5 °C 29.56in /  1000.9hPa ENE 1mph /  1.6km/h 4mph /  6.4km/h 96% 0.14in /  3.56mm WeatherCatV3.04B91 W/m2
11:34 46.4 °F /  8 °C 45.32 °F /  7.4 °C 29.56in /  1000.9hPa ENE 6mph /  9.7km/h 10mph /  16.1km/h 96% 0.12in /  3.05mm WeatherCatV3.04B91 W/m2
11:39 46.4 °F /  8 °C 45.32 °F /  7.4 °C 29.56in /  1000.9hPa Calm   5mph /  8km/h 96% 0.09in /  2.29mm WeatherCatV3.04B91 W/m2
11:44 46.4 °F /  8 °C 45.32 °F /  7.4 °C 29.55in /  1000.6hPa Calm     96% 0.09in /  2.29mm WeatherCatV3.04B91 W/m2
11:49 46.4 °F /  8 °C 45.32 °F /  7.4 °C 29.55in /  1000.6hPa Calm     96% 0.09in /  2.29mm WeatherCatV3.04B91 W/m2
11:54 46.4 °F /  8 °C 45.32 °F /  7.4 °C 29.55in /  1000.6hPa Calm   5mph /  8km/h 96% 0.06in /  1.52mm WeatherCatV3.04B91 W/m2
11:59 46.4 °F /  8 °C 45.32 °F /  7.4 °C 29.52in /  999.5hPa Calm   4mph /  6.4km/h 96% 0.06in /  1.52mm WeatherCatV3.04B91 W/m2
12:04 46.5 °F /  8.1 °C 45.42 °F /  7.5 °C 29.52in /  999.5hPa NE 6mph /  9.7km/h 9mph /  14.5km/h 96% 0.05in /  1.27mm WeatherCatV3.04B91 W/m2
12:09 46.5 °F /  8.1 °C 45.42 °F /  7.5 °C 29.52in /  999.5hPa NE 2mph /  3.2km/h 6mph /  9.7km/h 96% 0.05in /  1.27mm WeatherCatV3.04B91 W/m2
12:14 46.5 °F /  8.1 °C 45.42 °F /  7.5 °C 29.42in /  996.2hPa NE 6mph /  9.7km/h 8mph /  12.9km/h 96% 0.06in /  1.52mm WeatherCatV3.04B91 W/m2
12:19 46.7 °F /  8.2 °C 45.89 °F /  7.7 °C 29.42in /  996.2hPa NNE 3mph /  4.8km/h 11mph /  17.7km/h 97% 0.06in /  1.52mm WeatherCatV3.04B91 W/m2
12:24 46.8 °F /  8.2 °C 45.99 °F /  7.8 °C 29.42in /  996.2hPa Calm   13mph /  20.9km/h 97% 0.05in /  1.27mm WeatherCatV3.04B91 W/m2
12:29 47 °F /  8.3 °C 46.19 °F /  7.9 °C 29.46in /  997.5hPa Calm   11mph /  17.7km/h 97% 0.04in /  1.02mm WeatherCatV3.04B91 W/m2
12:34 46.8 °F /  8.2 °C 45.72 °F /  7.6 °C 29.46in /  997.5hPa ENE 4mph /  6.4km/h 6mph /  9.7km/h 96% 0in /  0mm WeatherCatV3.04B91 W/m2
12:39 47 °F /  8.3 °C 46.19 °F /  7.9 °C 29.46in /  997.5hPa ENE 3mph /  4.8km/h 7mph /  11.3km/h 97% 0in /  0mm WeatherCatV3.04B91 W/m2
12:44 47 °F /  8.3 °C 46.19 °F /  7.9 °C 29.39in /  995.1hPa Calm   13mph /  20.9km/h 97% 0in /  0mm WeatherCatV3.04B91 W/m2
12:49 47.1 °F /  8.4 °C 46.29 °F /  7.9 °C 29.39in /  995.1hPa East 4mph /  6.4km/h 14mph /  22.5km/h 97% 0in /  0mm WeatherCatV3.04B91 W/m2
12:54 47.3 °F /  8.5 °C 46.49 °F /  8.1 °C 29.39in /  995.1hPa NNE 2mph /  3.2km/h 6mph /  9.7km/h 97% 0in /  0mm WeatherCatV3.04B91 W/m2
12:59 47.4 °F /  8.6 °C 46.32 °F /  8 °C 29.45in /  997.2hPa East 1mph /  1.6km/h 14mph /  22.5km/h 96% 0in /  0mm WeatherCatV3.04B91 W/m2
13:04 47.4 °F /  8.6 °C 46.32 °F /  8 °C 29.45in /  997.2hPa NE 2mph /  3.2km/h 5mph /  8km/h 96% 0in /  0mm WeatherCatV3.04B91 W/m2
13:09 47.4 °F /  8.6 °C 46.32 °F /  8 °C 29.45in /  997.2hPa Calm     96% 0in /  0mm WeatherCatV3.04B91 W/m2
13:14 47.4 °F /  8.6 °C 46.32 °F /  8 °C 29.47in /  997.9hPa Calm     96% 0in /  0mm WeatherCatV3.04B91 W/m2
13:19 47.6 °F /  8.7 °C 46.52 °F /  8.1 °C 29.47in /  997.9hPa Calm   3mph /  4.8km/h 96% 0in /  0mm WeatherCatV3.04B91 W/m2
13:24 47.6 °F /  8.7 °C 46.52 °F /  8.1 °C 29.47in /  997.9hPa Calm   1mph /  1.6km/h 96% 0in /  0mm WeatherCatV3.04B91 W/m2
13:29 47.7 °F /  8.7 °C 46.62 °F /  8.1 °C 29.45in /  997.2hPa Calm   3mph /  4.8km/h 96% 0in /  0mm WeatherCatV3.04B91 W/m2
13:34 47.7 °F /  8.7 °C 46.62 °F /  8.1 °C 29.45in /  997.2hPa Calm   7mph /  11.3km/h 96% 0in /  0mm WeatherCatV3.04B91 W/m2
13:39 47.7 °F /  8.7 °C 46.62 °F /  8.1 °C 29.45in /  997.2hPa Calm   13mph /  20.9km/h 96% 0in /  0mm WeatherCatV3.04B91 W/m2
13:44 47.9 °F /  8.8 °C 46.81 °F /  8.2 °C 29.44in /  996.8hPa Calm   10mph /  16.1km/h 96% 0in /  0mm WeatherCatV3.04B91 W/m2
13:49 47.9 °F /  8.8 °C 46.81 °F /  8.2 °C 29.44in /  996.8hPa Calm   1mph /  1.6km/h 96% 0in /  0mm WeatherCatV3.04B91 W/m2
13:54 48 °F /  8.9 °C 46.91 °F /  8.3 °C 29.44in /  996.8hPa Calm   4mph /  6.4km/h 96% 0in /  0mm WeatherCatV3.04B91 W/m2
13:59 48 °F /  8.9 °C 46.91 °F /  8.3 °C 29.44in /  996.8hPa Calm   12mph /  19.3km/h 96% 0in /  0mm WeatherCatV3.04B91 W/m2
14:04 48.2 °F /  9 °C 47.11 °F /  8.4 °C 29.44in /  996.8hPa NNE 4mph /  6.4km/h 10mph /  16.1km/h 96% 0in /  0mm WeatherCatV3.04B91 W/m2
14:09 48.3 °F /  9.1 °C 47.21 °F /  8.5 °C 29.44in /  996.8hPa Calm   4mph /  6.4km/h 96% 0in /  0mm WeatherCatV3.04B91 W/m2
14:13 48.5 °F /  9.2 °C 47.13 °F /  8.4 °C 29.44in /  996.8hPa ENE 2mph /  3.2km/h 9mph /  14.5km/h 95% 0in /  0mm WeatherCatV3.04B91 W/m2
14:19 48.6 °F /  9.2 °C 47.23 °F /  8.5 °C 29.40in /  995.5hPa Calm   6mph /  9.7km/h 95% 0in /  0mm WeatherCatV3.04B91 W/m2
14:23 48.8 °F /  9.3 °C 47.43 °F /  8.6 °C 29.40in /  995.5hPa NE 2mph /  3.2km/h 10mph /  16.1km/h 95% 0in /  0mm WeatherCatV3.04B91 W/m2
14:29 48.8 °F /  9.3 °C 47.43 °F /  8.6 °C 29.40in /  995.5hPa Calm   9mph /  14.5km/h 95% 0in /  0mm WeatherCatV3.04B91 W/m2
14:33 48.9 °F /  9.4 °C 47.53 °F /  8.6 °C 29.40in /  995.5hPa Calm   10mph /  16.1km/h 95% 0in /  0mm WeatherCatV3.04B91 W/m2
14:39 49.1 °F /  9.5 °C 47.73 °F /  8.7 °C 29.40in /  995.5hPa East 4mph /  6.4km/h 12mph /  19.3km/h 95% 0in /  0mm WeatherCatV3.04B91 W/m2
14:44 49.2 °F /  9.6 °C 47.55 °F /  8.6 °C 29.40in /  995.5hPa Calm   9mph /  14.5km/h 94% 0in /  0mm WeatherCatV3.04B91 W/m2
14:49 49.2 °F /  9.6 °C 47.55 °F /  8.6 °C 29.40in /  995.5hPa Calm   1mph /  1.6km/h 94% 0in /  0mm WeatherCatV3.04B91 W/m2
14:53 49.2 °F /  9.6 °C 47.55 °F /  8.6 °C 29.40in /  995.5hPa Calm   10mph /  16.1km/h 94% 0in /  0mm WeatherCatV3.04B91 W/m2
14:59 49.5 °F /  9.7 °C 47.84 °F /  8.8 °C 29.36in /  994.1hPa NE 1mph /  1.6km/h 3mph /  4.8km/h 94% 0in /  0mm WeatherCatV3.04B91 W/m2
15:04 49.6 °F /  9.8 °C 47.94 °F /  8.9 °C 29.36in /  994.1hPa Calm   5mph /  8km/h 94% 0in /  0mm WeatherCatV3.04B91 W/m2
15:09 49.8 °F /  9.9 °C 47.86 °F /  8.8 °C 29.36in /  994.1hPa NE 1mph /  1.6km/h 2mph /  3.2km/h 93% 0in /  0mm WeatherCatV3.04B91 W/m2
15:14 49.8 °F /  9.9 °C 47.86 °F /  8.8 °C 29.37in /  994.5hPa North 6mph /  9.7km/h 6mph /  9.7km/h 93% 0in /  0mm WeatherCatV3.04B91 W/m2
15:19 49.8 °F /  9.9 °C 47.86 °F /  8.8 °C 29.37in /  994.5hPa ESE 2mph /  3.2km/h 7mph /  11.3km/h 93% 0in /  0mm WeatherCatV3.04B91 W/m2
15:23 49.8 °F /  9.9 °C 47.57 °F /  8.7 °C 29.37in /  994.5hPa Calm   5mph /  8km/h 92% 0in /  0mm WeatherCatV3.04B91 W/m2
15:29 49.8 °F /  9.9 °C 47.57 °F /  8.7 °C 29.36in /  994.1hPa ESE 5mph /  8km/h 12mph /  19.3km/h 92% 0in /  0mm WeatherCatV3.04B91 W/m2
15:33 49.6 °F /  9.8 °C 47.37 °F /  8.5 °C 29.36in /  994.1hPa Calm   2mph /  3.2km/h 92% 0in /  0mm WeatherCatV3.04B91 W/m2
15:39 49.8 °F /  9.9 °C 47.57 °F /  8.7 °C 29.36in /  994.1hPa North 4mph /  6.4km/h 4mph /  6.4km/h 92% 0in /  0mm WeatherCatV3.04B91 W/m2
15:44 49.8 °F /  9.9 °C 47.57 °F /  8.7 °C 29.37in /  994.5hPa NNE 2mph /  3.2km/h 2mph /  3.2km/h 92% 0in /  0mm WeatherCatV3.04B91 W/m2
15:49 49.8 °F /  9.9 °C 47.57 °F /  8.7 °C 29.37in /  994.5hPa NNE 9mph /  14.5km/h 9mph /  14.5km/h 92% 0in /  0mm WeatherCatV3.04B91 W/m2
15:53 49.8 °F /  9.9 °C 47.28 °F /  8.5 °C 29.37in /  994.5hPa Calm   12mph /  19.3km/h 91% 0in /  0mm WeatherCatV3.04B91 W/m2
15:59 49.8 °F /  9.9 °C 47.57 °F /  8.7 °C 29.35in /  993.8hPa NE 5mph /  8km/h 6mph /  9.7km/h 92% 0in /  0mm WeatherCatV3.04B91 W/m2
16:03 49.8 °F /  9.9 °C 47.57 °F /  8.7 °C 29.35in /  993.8hPa ESE 1mph /  1.6km/h 5mph /  8km/h 92% 0in /  0mm WeatherCatV3.04B91 W/m2
16:09 49.6 °F /  9.8 °C 47.37 °F /  8.5 °C 29.35in /  993.8hPa Calm   2mph /  3.2km/h 92% 0in /  0mm WeatherCatV3.04B91 W/m2
16:14 49.6 °F /  9.8 °C 47.37 °F /  8.5 °C 29.34in /  993.5hPa Calm   6mph /  9.7km/h 92% 0in /  0mm WeatherCatV3.04B91 W/m2
16:19 49.5 °F /  9.7 °C 47.27 °F /  8.5 °C 29.34in /  993.5hPa South 2mph /  3.2km/h 6mph /  9.7km/h 92% 0in /  0mm WeatherCatV3.04B91 W/m2
16:24 49.4 °F /  9.7 °C 47.17 °F /  8.4 °C 29.34in /  993.5hPa Calm   1mph /  1.6km/h 92% 0in /  0mm WeatherCatV3.04B91 W/m2
16:29 49.4 °F /  9.7 °C 47.46 °F /  8.6 °C 29.32in /  992.8hPa Calm   3mph /  4.8km/h 93% 0in /  0mm WeatherCatV3.04B91 W/m2
16:33 49.4 °F /  9.7 °C 47.46 °F /  8.6 °C 29.32in /  992.8hPa NE 4mph /  6.4km/h 4mph /  6.4km/h 93% 0in /  0mm WeatherCatV3.04B91 W/m2
16:39 49.2 °F /  9.6 °C 47.26 °F /  8.5 °C 29.32in /  992.8hPa Calm     93% 0in /  0mm WeatherCatV3.04B91 W/m2
16:44 49.2 °F /  9.6 °C 47.26 °F /  8.5 °C 29.31in /  992.4hPa Calm     93% 0in /  0mm WeatherCatV3.04B91 W/m2
16:49 49.2 °F /  9.6 °C 47.26 °F /  8.5 °C 29.31in /  992.4hPa Calm     93% 0in /  0mm WeatherCatV3.04B91 W/m2
16:54 49.2 °F /  9.6 °C 47.55 °F /  8.6 °C 29.31in /  992.4hPa Calm   2mph /  3.2km/h 94% 0in /  0mm WeatherCatV3.04B91 W/m2
16:59 49.4 °F /  9.7 °C 47.75 °F /  8.8 °C 29.30in /  992.1hPa NE 2mph /  3.2km/h 2mph /  3.2km/h 94% 0in /  0mm WeatherCatV3.04B91 W/m2
17:04 49.5 °F /  9.7 °C 47.84 °F /  8.8 °C 29.30in /  992.1hPa Calm   3mph /  4.8km/h 94% 0in /  0mm WeatherCatV3.04B91 W/m2
17:09 49.5 °F /  9.7 °C 47.84 °F /  8.8 °C 29.30in /  992.1hPa Calm     94% 0in /  0mm WeatherCatV3.04B91 W/m2
17:14 49.6 °F /  9.8 °C 47.94 °F /  8.9 °C 29.28in /  991.4hPa Calm     94% 0.04in /  1.02mm WeatherCatV3.04B91 W/m2
17:19 49.6 °F /  9.8 °C 48.23 °F /  9 °C 29.28in /  991.4hPa Calm     95% 0.04in /  1.02mm WeatherCatV3.04B91 W/m2
17:24 49.6 °F /  9.8 °C 48.23 °F /  9 °C 29.28in /  991.4hPa Calm     95% 0.04in /  1.02mm WeatherCatV3.04B91 W/m2
17:29 49.6 °F /  9.8 °C 48.23 °F /  9 °C 29.27in /  991.1hPa Calm   2mph /  3.2km/h 95% 0.04in /  1.02mm WeatherCatV3.04B91 W/m2
17:34 49.8 °F /  9.9 °C 48.42 °F /  9.1 °C 29.27in /  991.1hPa Calm     95% 0.04in /  1.02mm WeatherCatV3.04B91 W/m2
17:39 49.8 °F /  9.9 °C 48.42 °F /  9.1 °C 29.27in /  991.1hPa Calm     95% 0.06in /  1.52mm WeatherCatV3.04B91 W/m2
17:44 49.9 °F /  9.9 °C 48.8 °F /  9.3 °C 29.26in /  990.7hPa Calm   3mph /  4.8km/h 96% 0.17in /  4.32mm WeatherCatV3.04B91 W/m2
17:49 50.1 °F /  10.1 °C 49 °F /  9.4 °C 29.26in /  990.7hPa Calm     96% 0.11in /  2.79mm WeatherCatV3.04B91 W/m2
17:53 50.1 °F /  10.1 °C 49 °F /  9.4 °C 29.26in /  990.7hPa Calm   2mph /  3.2km/h 96% 0.08in /  2.03mm WeatherCatV3.04B91 W/m2
17:59 50.2 °F /  10.1 °C 49.1 °F /  9.5 °C 29.26in /  990.7hPa Calm     96% 0.08in /  2.03mm WeatherCatV3.04B91 W/m2
18:03 50.2 °F /  10.1 °C 49.1 °F /  9.5 °C 29.26in /  990.7hPa Calm     96% 0.06in /  1.52mm WeatherCatV3.04B91 W/m2
18:09 50.4 °F /  10.2 °C 49.3 °F /  9.6 °C 29.26in /  990.7hPa Calm   2mph /  3.2km/h 96% 0.1in /  2.54mm WeatherCatV3.04B91 W/m2
18:13 50.5 °F /  10.3 °C 49.4 °F /  9.7 °C 29.26in /  990.7hPa Calm     96% 0.09in /  2.29mm WeatherCatV3.04B91 W/m2
18:19 50.5 °F /  10.3 °C 49.4 °F /  9.7 °C 29.25in /  990.4hPa Calm     96% 0.23in /  5.84mm WeatherCatV3.04B91 W/m2
18:24 50.7 °F /  10.4 °C 49.88 °F /  9.9 °C 29.25in /  990.4hPa Calm     97% 0.17in /  4.32mm WeatherCatV3.04B91 W/m2
18:29 50.7 °F /  10.4 °C 49.6 °F /  9.8 °C 29.24in /  990.1hPa Calm     96% 0.12in /  3.05mm WeatherCatV3.04B91 W/m2
18:34 50.8 °F /  10.4 °C 49.98 °F /  10 °C 29.24in /  990.1hPa Calm     97% 0.06in /  1.52mm WeatherCatV3.04B91 W/m2
18:39 51 °F /  10.6 °C 50.18 °F /  10.1 °C 29.24in /  990.1hPa Calm     97% 0.04in /  1.02mm WeatherCatV3.04B91 W/m2
18:44 51.1 °F /  10.6 °C 50.28 °F /  10.2 °C 29.23in /  989.7hPa Calm     97% 0in /  0mm WeatherCatV3.04B91 W/m2
18:49 51.4 °F /  10.8 °C 50.58 °F /  10.3 °C 29.23in /  989.7hPa Calm     97% 0in /  0mm WeatherCatV3.04B91 W/m2
18:54 51.9 °F /  11.1 °C 51.07 °F /  10.6 °C 29.23in /  989.7hPa Calm     97% 0in /  0mm WeatherCatV3.04B91 W/m2
18:59 52.2 °F /  11.2 °C 51.37 °F /  10.8 °C 29.22in /  989.4hPa Calm     97% 0in /  0mm WeatherCatV3.04B91 W/m2
19:04 52.8 °F /  11.6 °C 51.97 °F /  11.1 °C 29.22in /  989.4hPa Calm     97% 0.07in /  1.78mm WeatherCatV3.04B91 W/m2
19:09 53.1 °F /  11.7 °C 52.27 °F /  11.3 °C 29.22in /  989.4hPa Calm     97% 0.11in /  2.79mm WeatherCatV3.04B91 W/m2
19:14 53.3 °F /  11.8 °C 52.47 °F /  11.4 °C 29.24in /  990.1hPa Calm     97% 0.1in /  2.54mm WeatherCatV3.04B91 W/m2
19:19 53.5 °F /  11.9 °C 52.67 °F /  11.5 °C 29.24in /  990.1hPa Calm     97% 0.08in /  2.03mm WeatherCatV3.04B91 W/m2
19:24 53.8 °F /  12.1 °C 53.25 °F /  11.8 °C 29.24in /  990.1hPa Calm     98% 0.07in /  1.78mm WeatherCatV3.04B91 W/m2
19:29 54.1 °F /  12.3 °C 53.55 °F /  12 °C 29.24in /  990.1hPa Calm     98% 0.04in /  1.02mm WeatherCatV3.04B91 W/m2
19:34 54.2 °F /  12.3 °C 53.65 °F /  12 °C 29.24in /  990.1hPa Calm     98% 0in /  0mm WeatherCatV3.04B91 W/m2
19:39 54.4 °F /  12.4 °C 53.85 °F /  12.1 °C 29.24in /  990.1hPa Calm     98% 0in /  0mm WeatherCatV3.04B91 W/m2
19:44 54.5 °F /  12.5 °C 53.95 °F /  12.2 °C 29.23in /  989.7hPa Calm     98% 0in /  0mm WeatherCatV3.04B91 W/m2
19:49 54.5 °F /  12.5 °C 53.95 °F /  12.2 °C 29.23in /  989.7hPa Calm     98% 0in /  0mm WeatherCatV3.04B91 W/m2
19:54 54.7 °F /  12.6 °C 54.14 °F /  12.3 °C 29.23in /  989.7hPa Calm     98% 0in /  0mm WeatherCatV3.04B91 W/m2
19:59 54.8 °F /  12.7 °C 54.24 °F /  12.4 °C 29.23in /  989.7hPa Calm     98% 0in /  0mm WeatherCatV3.04B91 W/m2
20:04 55 °F /  12.8 °C 54.44 °F /  12.5 °C 29.23in /  989.7hPa Calm     98% 0in /  0mm WeatherCatV3.04B91 W/m2
20:09 55.1 °F /  12.8 °C 54.54 °F /  12.5 °C 29.23in /  989.7hPa Calm   3mph /  4.8km/h 98% 0.08in /  2.03mm WeatherCatV3.04B91 W/m2
20:14 55.1 °F /  12.8 °C 54.54 °F /  12.5 °C 29.24in /  990.1hPa Calm   7mph /  11.3km/h 98% 0.54in /  13.72mm WeatherCatV3.04B91 W/m2
20:19 54.8 °F /  12.7 °C 54.24 °F /  12.4 °C 29.24in /  990.1hPa Calm   4mph /  6.4km/h 98% 0.16in /  4.06mm WeatherCatV3.04B91 W/m2
20:24 54.5 °F /  12.5 °C 53.95 °F /  12.2 °C 29.24in /  990.1hPa Calm   10mph /  16.1km/h 98% 0.31in /  7.87mm WeatherCatV3.04B91 W/m2
20:29 54.2 °F /  12.3 °C 53.65 °F /  12 °C 29.24in /  990.1hPa SW 1mph /  1.6km/h 4mph /  6.4km/h 98% 0.33in /  8.38mm WeatherCatV3.04B91 W/m2
20:34 53.9 °F /  12.2 °C 53.35 °F /  11.9 °C 29.24in /  990.1hPa Calm   6mph /  9.7km/h 98% 0.15in /  3.81mm WeatherCatV3.04B91 W/m2
20:39 53.8 °F /  12.1 °C 53.25 °F /  11.8 °C 29.24in /  990.1hPa WSW 3mph /  4.8km/h 3mph /  4.8km/h 98% 0.12in /  3.05mm WeatherCatV3.04B91 W/m2
20:44 53.5 °F /  11.9 °C 52.95 °F /  11.6 °C 29.24in /  990.1hPa Calm   5mph /  8km/h 98% 0.12in /  3.05mm WeatherCatV3.04B91 W/m2
20:49 53.3 °F /  11.8 °C 52.75 °F /  11.5 °C 29.24in /  990.1hPa Calm     98% 0.06in /  1.52mm WeatherCatV3.04B91 W/m2
20:54 53.3 °F /  11.8 °C 52.75 °F /  11.5 °C 29.24in /  990.1hPa Calm     98% 0.05in /  1.27mm WeatherCatV3.04B91 W/m2
20:59 53.2 °F /  11.8 °C 52.65 °F /  11.5 °C 29.24in /  990.1hPa Calm     98% 0.11in /  2.79mm WeatherCatV3.04B91 W/m2
21:04 53.1 °F /  11.7 °C 52.55 °F /  11.4 °C 29.24in /  990.1hPa Calm     98% 0.08in /  2.03mm WeatherCatV3.04B91 W/m2
21:09 52.9 °F /  11.6 °C 52.07 °F /  11.2 °C 29.24in /  990.1hPa Calm     97% 0.05in /  1.27mm WeatherCatV3.04B91 W/m2
21:14 52.8 °F /  11.6 °C 51.97 °F /  11.1 °C 29.24in /  990.1hPa Calm     97% 0in /  0mm WeatherCatV3.04B91 W/m2
21:19 52.5 °F /  11.4 °C 51.67 °F /  10.9 °C 29.24in /  990.1hPa Calm     97% 0in /  0mm WeatherCatV3.04B91 W/m2
21:24 52.2 °F /  11.2 °C 51.37 °F /  10.8 °C 29.24in /  990.1hPa Calm     97% 0in /  0mm WeatherCatV3.04B91 W/m2
21:29 51.9 °F /  11.1 °C 51.07 °F /  10.6 °C 29.23in /  989.7hPa Calm     97% 0in /  0mm WeatherCatV3.04B91 W/m2
21:34 51.7 °F /  10.9 °C 50.87 °F /  10.5 °C 29.23in /  989.7hPa Calm     97% 0in /  0mm WeatherCatV3.04B91 W/m2
21:39 51.6 °F /  10.9 °C 51.05 °F /  10.6 °C 29.23in /  989.7hPa Calm     98% 0in /  0mm WeatherCatV3.04B91 W/m2
21:44 51.4 °F /  10.8 °C 50.85 °F /  10.5 °C 29.24in /  990.1hPa Calm     98% 0in /  0mm WeatherCatV3.04B91 W/m2
21:49 51.3 °F /  10.7 °C 50.75 °F /  10.4 °C 29.24in /  990.1hPa Calm     98% 0in /  0mm WeatherCatV3.04B91 W/m2
21:54 51.1 °F /  10.6 °C 50.55 °F /  10.3 °C 29.24in /  990.1hPa Calm     98% 0in /  0mm WeatherCatV3.04B91 W/m2
21:59 51.1 °F /  10.6 °C 50.55 °F /  10.3 °C 29.24in /  990.1hPa Calm     98% 0in /  0mm WeatherCatV3.04B91 W/m2
22:04 51 °F /  10.6 °C 50.45 °F /  10.3 °C 29.24in /  990.1hPa Calm     98% 0in /  0mm WeatherCatV3.04B91 W/m2
22:09 51 °F /  10.6 °C 50.45 °F /  10.3 °C 29.24in /  990.1hPa Calm     98% 0in /  0mm WeatherCatV3.04B91 W/m2
22:14 51 °F /  10.6 °C 50.45 °F /  10.3 °C 29.24in /  990.1hPa Calm     98% 0in /  0mm WeatherCatV3.04B91 W/m2
22:19 51 °F /  10.6 °C 50.45 °F /  10.3 °C 29.24in /  990.1hPa Calm     98% 0in /  0mm WeatherCatV3.04B91 W/m2
22:23 51 °F /  10.6 °C 50.45 °F /  10.3 °C 29.24in /  990.1hPa Calm     98% 0in /  0mm WeatherCatV3.04B91 W/m2
22:29 51.1 °F /  10.6 °C 50.55 °F /  10.3 °C 29.24in /  990.1hPa Calm     98% 0in /  0mm WeatherCatV3.04B91 W/m2
22:34 51.1 °F /  10.6 °C 50.55 °F /  10.3 °C 29.24in /  990.1hPa Calm     98% 0in /  0mm WeatherCatV3.04B91 W/m2
22:39 51.3 °F /  10.7 °C 50.75 °F /  10.4 °C 29.24in /  990.1hPa Calm   4mph /  6.4km/h 98% 0.35in /  8.89mm WeatherCatV3.04B91 W/m2
22:44 51.7 °F /  10.9 °C 51.15 °F /  10.6 °C 29.24in /  990.1hPa WSW 2mph /  3.2km/h 5mph /  8km/h 98% 0.15in /  3.81mm WeatherCatV3.04B91 W/m2
22:49 52 °F /  11.1 °C 51.45 °F /  10.8 °C 29.24in /  990.1hPa Calm     98% 0.13in /  3.3mm WeatherCatV3.04B91 W/m2
22:54 52 °F /  11.1 °C 51.45 °F /  10.8 °C 29.24in /  990.1hPa Calm     98% 0.12in /  3.05mm WeatherCatV3.04B91 W/m2
22:59 51.9 °F /  11.1 °C 51.35 °F /  10.8 °C 29.24in /  990.1hPa Calm   5mph /  8km/h 98% 0.09in /  2.29mm WeatherCatV3.04B91 W/m2
23:04 52 °F /  11.1 °C 51.45 °F /  10.8 °C 29.24in /  990.1hPa Calm     98% 0.15in /  3.81mm WeatherCatV3.04B91 W/m2
23:08 52 °F /  11.1 °C 51.45 °F /  10.8 °C 29.24in /  990.1hPa WSW 3mph /  4.8km/h 5mph /  8km/h 98% 0.2in /  5.08mm WeatherCatV3.04B91 W/m2
23:14 52.5 °F /  11.4 °C 52.23 °F /  11.2 °C 29.24in /  990.1hPa Calm   5mph /  8km/h 99% 0.13in /  3.3mm WeatherCatV3.04B91 W/m2
23:19 52.8 °F /  11.6 °C 52.25 °F /  11.3 °C 29.24in /  990.1hPa Calm   3mph /  4.8km/h 98% 0.09in /  2.29mm WeatherCatV3.04B91 W/m2
23:24 52.8 °F /  11.6 °C 52.25 °F /  11.3 °C 29.24in /  990.1hPa Calm     98% 0.1in /  2.54mm WeatherCatV3.04B91 W/m2
23:29 52.8 °F /  11.6 °C 52.25 °F /  11.3 °C 29.22in /  989.4hPa Calm     98% 0.09in /  2.29mm WeatherCatV3.04B91 W/m2
23:34 52.6 °F /  11.4 °C 52.05 °F /  11.1 °C 29.22in /  989.4hPa Calm     98% 0.05in /  1.27mm WeatherCatV3.04B91 W/m2
23:39 52.5 °F /  11.4 °C 51.95 °F /  11.1 °C 29.22in /  989.4hPa Calm     98% 0.04in /  1.02mm WeatherCatV3.04B91 W/m2
23:44 52.2 °F /  11.2 °C 51.65 °F /  10.9 °C 29.20in /  988.7hPa Calm     98% 0in /  0mm WeatherCatV3.04B91 W/m2
23:49 52 °F /  11.1 °C 51.45 °F /  10.8 °C 29.20in /  988.7hPa Calm     98% 0in /  0mm WeatherCatV3.04B91 W/m2
23:54 51.7 °F /  10.9 °C 51.15 °F /  10.6 °C 29.20in /  988.7hPa Calm     98% 0in /  0mm WeatherCatV3.04B91 W/m2
23:59 51.6 °F /  10.9 °C 51.05 °F /  10.6 °C 29.20in /  988.7hPa Calm     98% 0in /  0mm WeatherCatV3.04B91 W/m2
Bellevue, Nebraska, USA
Compliments of Weather Underground - 3.25 mb